createdAt,value
2016-12-02T00:00:47.883Z,0
2016-12-02T00:01:47.835Z,0
2016-12-02T00:02:47.793Z,0
2016-12-02T00:03:47.756Z,0
2016-12-02T00:04:47.412Z,0
2016-12-02T00:05:47.364Z,0
2016-12-02T00:06:47.327Z,0
2016-12-02T00:07:47.578Z,0
2016-12-02T00:08:47.240Z,0
2016-12-02T00:09:47.517Z,0
2016-12-02T00:10:47.442Z,0
2016-12-02T00:11:47.103Z,0
2016-12-02T00:12:47.362Z,0
2016-12-02T00:13:47.013Z,0
2016-12-02T00:14:46.972Z,0
2016-12-02T00:15:47.272Z,0
2016-12-02T00:16:47.196Z,0
2016-12-02T00:17:47.151Z,0
2016-12-02T00:18:46.796Z,0
2016-12-02T00:19:46.761Z,0
2016-12-02T00:20:47.023Z,0
2016-12-02T00:21:46.968Z,0
2016-12-02T00:22:46.321Z,0
2016-12-02T00:23:46.881Z,0
2016-12-02T00:24:46.240Z,0
2016-12-02T00:25:46.795Z,0
2016-12-02T00:26:46.779Z,0
2016-12-02T00:27:46.412Z,0
2016-12-02T00:28:46.359Z,0
2016-12-02T00:29:45.713Z,0
2016-12-02T00:30:46.276Z,0
2016-12-02T00:31:46.535Z,0
2016-12-02T00:32:46.500Z,0
2016-12-02T00:33:46.447Z,0
2016-12-02T00:34:45.798Z,0
2016-12-02T00:35:46.087Z,0
2016-12-02T00:36:46.312Z,0
2016-12-02T00:37:45.667Z,0
2016-12-02T00:38:45.621Z,0
2016-12-02T00:39:45.579Z,0
2016-12-02T00:40:45.843Z,0
2016-12-02T00:41:45.803Z,0
2016-12-02T00:42:46.047Z,0
2016-12-02T00:43:46.010Z,0
2016-12-02T00:44:45.965Z,0
2016-12-02T00:45:45.642Z,0
2016-12-02T00:46:45.885Z,0
2016-12-02T00:47:45.836Z,0
2016-12-02T00:48:45.481Z,0
2016-12-02T00:49:45.440Z,0
2016-12-02T00:50:45.397Z,0
2016-12-02T00:51:45.358Z,0
2016-12-02T00:52:45.607Z,0
2016-12-02T00:53:45.565Z,0
2016-12-02T00:54:45.072Z,0
2016-12-02T00:55:44.722Z,0
2016-12-02T00:56:44.990Z,0
2016-12-02T00:57:44.941Z,0
2016-12-02T00:58:44.922Z,0
2016-12-02T00:59:44.549Z,0
2016-12-02T01:00:44.799Z,0
2016-12-02T01:01:44.160Z,0
2016-12-02T01:02:44.413Z,0
2016-12-02T01:03:44.395Z,0
2016-12-02T01:04:44.038Z,0
2016-12-02T01:05:44.584Z,0
2016-12-02T01:06:44.236Z,0
2016-12-02T01:07:44.493Z,0
2016-12-02T01:08:44.458Z,0
2016-12-02T01:09:44.415Z,0
2016-12-02T01:10:44.365Z,0
2016-12-02T01:11:44.329Z,0
2016-12-02T01:12:44.280Z,0
2016-12-02T01:13:44.239Z,0
2016-12-02T01:14:44.189Z,0
2016-12-02T01:15:44.175Z,0
2016-12-02T01:16:43.804Z,0
2016-12-02T01:17:44.084Z,0
2016-12-02T01:18:44.016Z,0
2016-12-02T01:19:43.373Z,0
2016-12-02T01:20:43.927Z,0
2016-12-02T01:21:43.583Z,0
2016-12-02T01:22:43.850Z,0
2016-12-02T01:23:43.517Z,0
2016-12-02T01:24:43.751Z,0
2016-12-02T01:25:43.411Z,0
2016-12-02T01:26:43.685Z,0
2016-12-02T01:27:43.320Z,0
2016-12-02T01:28:43.575Z,0
2016-12-02T01:29:43.233Z,0
2016-12-02T01:30:43.492Z,0
2016-12-02T01:31:43.142Z,0
2016-12-02T01:32:43.097Z,0
2016-12-02T01:33:43.058Z,0
2016-12-02T01:34:43.017Z,0
2016-12-02T01:35:43.269Z,0
2016-12-02T01:36:43.224Z,0
2016-12-02T01:37:42.913Z,0
2016-12-02T01:38:42.833Z,0
2016-12-02T01:39:42.791Z,0
2016-12-02T01:40:43.047Z,0
2016-12-02T01:41:42.706Z,0
2016-12-02T01:42:42.652Z,0
2016-12-02T01:43:42.621Z,0
2016-12-02T01:44:42.881Z,0
2016-12-02T01:45:42.230Z,0
2016-12-02T01:46:42.483Z,0
2016-12-02T01:47:42.763Z,0
2016-12-02T01:48:42.394Z,0
2016-12-02T01:49:42.657Z,0
2016-12-02T01:50:42.616Z,0
2016-12-02T01:51:42.271Z,0
2016-12-02T01:52:42.522Z,0
2016-12-02T01:53:42.485Z,0
2016-12-02T01:54:42.136Z,0
2016-12-02T01:55:42.392Z,0
2016-12-02T01:56:42.348Z,0
2016-12-02T01:57:42.001Z,0
2016-12-02T01:58:42.265Z,0
2016-12-02T01:59:41.919Z,0
2016-12-02T02:00:42.172Z,0
2016-12-02T02:01:42.130Z,0
2016-12-02T02:02:42.081Z,0
2016-12-02T02:03:41.742Z,0
2016-12-02T02:04:41.691Z,0
2016-12-02T02:05:41.955Z,0
2016-12-02T02:06:41.607Z,0
2016-12-02T02:07:41.866Z,0
2016-12-02T02:08:41.525Z,0
2016-12-02T02:09:41.475Z,0
2016-12-02T02:10:41.729Z,0
2016-12-02T02:11:41.387Z,0
2016-12-02T02:12:41.645Z,0
2016-12-02T02:13:41.000Z,0
2016-12-02T02:14:41.552Z,0
2016-12-02T02:15:41.518Z,0
2016-12-02T02:16:41.163Z,0
2016-12-02T02:17:41.126Z,0
2016-12-02T02:18:41.074Z,0
2016-12-02T02:19:41.033Z,0
2016-12-02T02:20:41.024Z,0
2016-12-02T02:21:40.944Z,0
2016-12-02T02:22:41.229Z,0
2016-12-02T02:23:40.856Z,0
2016-12-02T02:24:41.115Z,0
2016-12-02T02:25:40.773Z,0
2016-12-02T02:26:40.733Z,0
2016-12-02T02:27:41.010Z,0
2016-12-02T02:28:40.938Z,0
2016-12-02T02:29:40.896Z,0
2016-12-02T02:30:40.849Z,0
2016-12-02T02:31:40.204Z,0
2016-12-02T02:32:40.473Z,0
2016-12-02T02:33:40.719Z,0
2016-12-02T02:34:40.374Z,0
2016-12-02T02:35:40.628Z,0
2016-12-02T02:36:40.281Z,0
2016-12-02T02:37:40.244Z,0
2016-12-02T02:38:40.500Z,0
2016-12-02T02:39:40.150Z,0
2016-12-02T02:40:40.112Z,0
2016-12-02T02:41:39.768Z,0
2016-12-02T02:42:40.332Z,0
2016-12-02T02:43:40.284Z,0
2016-12-02T02:44:40.229Z,0
2016-12-02T02:45:39.889Z,0
2016-12-02T02:46:39.849Z,0
2016-12-02T02:47:40.102Z,0
2016-12-02T02:48:39.765Z,0
2016-12-02T02:49:39.413Z,0
2016-12-02T02:50:39.967Z,0
2016-12-02T02:51:39.626Z,0
2016-12-02T02:52:39.580Z,0
2016-12-02T02:53:39.537Z,0
2016-12-02T02:54:39.792Z,0
2016-12-02T02:55:39.752Z,0
2016-12-02T02:56:39.403Z,0
2016-12-02T02:57:39.058Z,0
2016-12-02T02:58:39.314Z,0
2016-12-02T02:59:39.568Z,0
2016-12-02T03:00:39.257Z,0
2016-12-02T03:01:39.480Z,0
2016-12-02T03:02:39.135Z,0
2016-12-02T03:03:39.395Z,0
2016-12-02T03:04:39.346Z,0
2016-12-02T03:05:38.698Z,0
2016-12-02T03:06:39.262Z,0
2016-12-02T03:07:38.928Z,0
2016-12-02T03:08:38.878Z,0
2016-12-02T03:09:38.827Z,0
2016-12-02T03:10:38.779Z,0
2016-12-02T03:11:38.740Z,0
2016-12-02T03:12:38.698Z,0
2016-12-02T03:13:38.653Z,0
2016-12-02T03:14:38.302Z,0
2016-12-02T03:15:38.560Z,0
2016-12-02T03:16:38.518Z,0
2016-12-02T03:17:38.475Z,0
2016-12-02T03:18:38.433Z,0
2016-12-02T03:19:38.686Z,0
2016-12-02T03:20:38.345Z,0
2016-12-02T03:21:38.596Z,0
2016-12-02T03:22:38.560Z,0
2016-12-02T03:23:38.543Z,0
2016-12-02T03:24:38.468Z,0
2016-12-02T03:25:38.424Z,0
2016-12-02T03:26:37.777Z,0
2016-12-02T03:27:38.339Z,0
2016-12-02T03:28:38.301Z,0
2016-12-02T03:29:38.251Z,0
2016-12-02T03:30:37.901Z,0
2016-12-02T03:31:38.163Z,0
2016-12-02T03:32:38.119Z,0
2016-12-02T03:33:37.796Z,0
2016-12-02T03:34:38.024Z,0
2016-12-02T03:35:37.684Z,0
2016-12-02T03:36:37.940Z,0
2016-12-02T03:37:37.302Z,0
2016-12-02T03:38:37.547Z,0
2016-12-02T03:39:37.507Z,0
2016-12-02T03:40:37.774Z,0
2016-12-02T03:41:37.745Z,0
2016-12-02T03:42:37.672Z,0
2016-12-02T03:43:37.331Z,0
2016-12-02T03:44:37.589Z,0
2016-12-02T03:45:37.539Z,0
2016-12-02T03:46:37.498Z,0
2016-12-02T03:47:37.455Z,0
2016-12-02T03:48:37.412Z,0
2016-12-02T03:49:37.364Z,0
2016-12-02T03:50:37.227Z,0
2016-12-02T03:51:36.979Z,0
2016-12-02T03:52:37.237Z,0
2016-12-02T03:53:37.194Z,0
2016-12-02T03:54:36.849Z,0
2016-12-02T03:55:37.102Z,0
2016-12-02T03:56:36.460Z,0
2016-12-02T03:57:37.020Z,0
2016-12-02T03:58:36.366Z,0
2016-12-02T03:59:36.016Z,0
2016-12-02T04:00:36.577Z,0
2016-12-02T04:01:36.537Z,0
2016-12-02T04:02:36.790Z,0
2016-12-02T04:03:36.752Z,0
2016-12-02T04:04:36.411Z,0
2016-12-02T04:05:36.364Z,0
2016-12-02T04:06:36.615Z,0
2016-12-02T04:07:36.573Z,0
2016-12-02T04:08:36.526Z,0
2016-12-02T04:09:36.179Z,0
2016-12-02T04:10:36.440Z,0
2016-12-02T04:11:36.396Z,0
2016-12-02T04:12:36.348Z,0
2016-12-02T04:13:35.702Z,0
2016-12-02T04:14:36.259Z,0
2016-12-02T04:15:36.215Z,0
2016-12-02T04:16:36.173Z,0
2016-12-02T04:17:35.836Z,0
2016-12-02T04:18:36.287Z,0
2016-12-02T04:19:35.742Z,0
2016-12-02T04:20:36.002Z,0
2016-12-02T04:21:35.355Z,0
2016-12-02T04:22:35.307Z,0
2016-12-02T04:23:35.260Z,0
2016-12-02T04:24:35.248Z,0
2016-12-02T04:25:35.781Z,0
2016-12-02T04:26:35.731Z,0
2016-12-02T04:27:35.391Z,0
2016-12-02T04:28:35.648Z,0
2016-12-02T04:29:35.302Z,0
2016-12-02T04:30:35.553Z,0
2016-12-02T04:31:35.204Z,0
2016-12-02T04:32:35.464Z,0
2016-12-02T04:33:34.819Z,0
2016-12-02T04:34:35.379Z,0
2016-12-02T04:35:35.335Z,0
2016-12-02T04:36:34.986Z,0
2016-12-02T04:37:34.948Z,0
2016-12-02T04:38:34.900Z,0
2016-12-02T04:39:35.158Z,0
2016-12-02T04:40:35.116Z,0
2016-12-02T04:41:35.075Z,0
2016-12-02T04:42:34.725Z,0
2016-12-02T04:43:34.982Z,0
2016-12-02T04:44:34.937Z,0
2016-12-02T04:45:34.898Z,0
2016-12-02T04:46:34.848Z,0
2016-12-02T04:47:34.499Z,0
2016-12-02T04:48:34.759Z,0
2016-12-02T04:49:34.714Z,0
2016-12-02T04:50:34.394Z,0
2016-12-02T04:51:34.327Z,0
2016-12-02T04:52:34.276Z,0
2016-12-02T04:53:34.542Z,0
2016-12-02T04:54:34.490Z,0
2016-12-02T04:55:34.149Z,0
2016-12-02T04:56:34.406Z,0
2016-12-02T04:57:33.756Z,0
2016-12-02T04:58:34.010Z,0
2016-12-02T04:59:33.662Z,0
2016-12-02T05:00:34.228Z,0
2016-12-02T05:01:33.880Z,0
2016-12-02T05:02:33.834Z,0
2016-12-02T05:03:33.797Z,0
2016-12-02T05:04:34.045Z,0
2016-12-02T05:05:33.698Z,0
2016-12-02T05:06:33.352Z,0
2016-12-02T05:07:33.613Z,0
2016-12-02T05:08:33.869Z,0
2016-12-02T05:09:33.523Z,0
2016-12-02T05:10:33.479Z,0
2016-12-02T05:11:33.739Z,0
2016-12-02T05:12:33.696Z,0
2016-12-02T05:13:33.649Z,0
2016-12-02T05:14:33.302Z,0
2016-12-02T05:15:33.257Z,0
2016-12-02T05:16:33.520Z,0
2016-12-02T05:17:33.475Z,0
2016-12-02T05:18:33.125Z,0
2016-12-02T05:19:33.082Z,0
2016-12-02T05:20:33.037Z,0
2016-12-02T05:21:33.298Z,0
2016-12-02T05:22:33.251Z,0
2016-12-02T05:23:32.901Z,0
2016-12-02T05:24:32.855Z,0
2016-12-02T05:25:32.819Z,0
2016-12-02T05:26:33.070Z,0
2016-12-02T05:27:32.745Z,0
2016-12-02T05:28:32.677Z,0
2016-12-02T05:29:32.939Z,0
2016-12-02T05:30:32.902Z,0
2016-12-02T05:31:32.845Z,0
2016-12-02T05:32:32.800Z,0
2016-12-02T05:33:32.761Z,0
2016-12-02T05:34:32.417Z,0
2016-12-02T05:35:32.371Z,0
2016-12-02T05:36:32.328Z,0
2016-12-02T05:37:32.271Z,0
2016-12-02T05:38:32.255Z,0
2016-12-02T05:39:31.887Z,0
2016-12-02T05:40:32.448Z,0
2016-12-02T05:41:32.406Z,0
2016-12-02T05:42:32.360Z,0
2016-12-02T05:43:32.316Z,0
2016-12-02T05:44:31.968Z,0
2016-12-02T05:45:31.920Z,0
2016-12-02T05:46:31.879Z,0
2016-12-02T05:47:31.838Z,0
2016-12-02T05:48:31.488Z,0
2016-12-02T05:49:31.745Z,0
2016-12-02T05:50:31.701Z,0
2016-12-02T05:51:31.957Z,0
2016-12-02T05:52:31.614Z,0
2016-12-02T05:53:31.567Z,0
2016-12-02T05:54:30.923Z,0
2016-12-02T05:55:31.786Z,0
2016-12-02T05:56:31.438Z,0
2016-12-02T05:57:31.694Z,0
2016-12-02T05:58:31.646Z,0
2016-12-02T05:59:31.301Z,0
2016-12-02T06:00:31.562Z,0
2016-12-02T06:01:31.515Z,0
2016-12-02T06:02:31.470Z,0
2016-12-02T06:03:31.422Z,0
2016-12-02T06:04:31.087Z,0
2016-12-02T06:05:31.343Z,0
2016-12-02T06:06:30.687Z,0
2016-12-02T06:07:31.256Z,0
2016-12-02T06:08:30.896Z,0
2016-12-02T06:09:30.868Z,0
2016-12-02T06:10:31.112Z,0
2016-12-02T06:11:30.769Z,0
2016-12-02T06:12:30.419Z,0
2016-12-02T06:13:30.978Z,0
2016-12-02T06:14:30.935Z,0
2016-12-02T06:15:30.589Z,0
2016-12-02T06:16:30.854Z,0
2016-12-02T06:17:30.496Z,0
2016-12-02T06:18:30.756Z,0
2016-12-02T06:19:30.712Z,0
2016-12-02T06:20:30.671Z,0
2016-12-02T06:21:30.323Z,0
2016-12-02T06:22:30.278Z,0
2016-12-02T06:23:30.233Z,0
2016-12-02T06:24:30.492Z,0
2016-12-02T06:25:30.144Z,0
2016-12-02T06:26:30.400Z,0
2016-12-02T06:27:30.358Z,0
2016-12-02T06:28:30.312Z,0
2016-12-02T06:29:29.680Z,0
2016-12-02T06:30:29.922Z,0
2016-12-02T06:31:30.174Z,0
2016-12-02T06:32:29.836Z,0
2016-12-02T06:33:30.087Z,0
2016-12-02T06:34:30.055Z,0
2016-12-02T06:35:29.393Z,0
2016-12-02T06:36:29.954Z,0
2016-12-02T06:37:29.608Z,0
2016-12-02T06:38:29.571Z,0
2016-12-02T06:39:29.836Z,0
2016-12-02T06:40:29.167Z,0
2016-12-02T06:41:29.452Z,0
2016-12-02T06:42:29.093Z,0
2016-12-02T06:43:29.649Z,0
2016-12-02T06:44:29.007Z,0
2016-12-02T06:45:29.563Z,5
2016-12-02T06:46:29.512Z,5
2016-12-02T06:47:29.469Z,5
2016-12-02T06:48:29.423Z,5
2016-12-02T06:49:28.772Z,5
2016-12-02T06:50:29.026Z,5
2016-12-02T06:51:28.989Z,5
2016-12-02T06:52:28.641Z,10
2016-12-02T06:53:29.198Z,10
2016-12-02T06:54:28.853Z,10
2016-12-02T06:55:28.811Z,10
2016-12-02T06:56:28.765Z,10
2016-12-02T06:57:29.029Z,15
2016-12-02T06:58:28.979Z,15
2016-12-02T06:59:28.631Z,15
2016-12-02T07:00:28.889Z,15
2016-12-02T07:01:28.853Z,20
2016-12-02T07:02:28.496Z,20
2016-12-02T07:03:28.457Z,20
2016-12-02T07:04:28.108Z,20
2016-12-02T07:05:28.366Z,25
2016-12-02T07:06:28.642Z,30
2016-12-02T07:07:29.038Z,35
2016-12-02T07:08:28.418Z,35
2016-12-02T07:09:28.652Z,35
2016-12-02T07:10:28.913Z,35
2016-12-02T07:11:28.253Z,35
2016-12-02T07:12:28.512Z,35
2016-12-02T07:13:28.467Z,40
2016-12-02T07:14:27.514Z,40
2016-12-02T07:15:27.475Z,40
2016-12-02T07:16:28.333Z,45
2016-12-02T07:17:28.597Z,45
2016-12-02T07:18:28.555Z,50
2016-12-02T07:19:28.216Z,60
2016-12-02T07:20:28.173Z,110
2016-12-02T07:21:28.108Z,145
2016-12-02T07:22:28.071Z,160
2016-12-02T07:23:27.720Z,170
2016-12-02T07:24:27.984Z,175
2016-12-02T07:25:28.246Z,175
2016-12-02T07:26:27.614Z,165
2016-12-02T07:27:28.151Z,110
2016-12-02T07:28:27.806Z,80
2016-12-02T07:29:27.481Z,80
2016-12-02T07:30:27.724Z,80
2016-12-02T07:31:27.100Z,85
2016-12-02T07:32:27.933Z,125
2016-12-02T07:33:27.889Z,180
2016-12-02T07:34:27.849Z,250
2016-12-02T07:35:27.804Z,265
2016-12-02T07:36:27.769Z,280
2016-12-02T07:37:27.417Z,295
2016-12-02T07:38:27.368Z,305
2016-12-02T07:39:27.344Z,325
2016-12-02T07:40:26.996Z,335
2016-12-02T07:41:27.246Z,345
2016-12-02T07:42:27.202Z,360
2016-12-02T07:43:27.470Z,370
2016-12-02T07:44:27.118Z,380
2016-12-02T07:45:27.076Z,390
2016-12-02T07:46:27.053Z,385
2016-12-02T07:47:27.307Z,385
2016-12-02T07:48:26.956Z,360
2016-12-02T07:49:27.218Z,315
2016-12-02T07:50:26.566Z,210
2016-12-02T07:51:27.137Z,185
2016-12-02T07:52:27.096Z,285
2016-12-02T07:53:26.754Z,310
2016-12-02T07:54:26.410Z,185
2016-12-02T07:55:26.674Z,195
2016-12-02T07:56:26.626Z,310
2016-12-02T07:57:26.891Z,465
2016-12-02T07:58:26.246Z,290
2016-12-02T07:59:26.219Z,165
2016-12-02T08:00:25.867Z,315
2016-12-02T08:01:26.435Z,445
2016-12-02T08:02:26.705Z,470
2016-12-02T08:03:26.059Z,430
2016-12-02T08:04:26.315Z,205
2016-12-02T08:05:26.578Z,160
2016-12-02T08:06:26.230Z,165
2016-12-02T08:07:26.192Z,145
2016-12-02T08:08:26.454Z,140
2016-12-02T08:09:26.417Z,135
2016-12-02T08:10:26.078Z,135
2016-12-02T08:11:26.043Z,135
2016-12-02T08:12:26.008Z,135
2016-12-02T08:13:25.970Z,130
2016-12-02T08:14:26.222Z,130
2016-12-02T08:15:25.884Z,130
2016-12-02T08:16:25.842Z,135
2016-12-02T08:17:25.801Z,140
2016-12-02T08:18:25.775Z,145
2016-12-02T08:19:25.113Z,155
2016-12-02T08:20:25.976Z,160
2016-12-02T08:21:25.644Z,160
2016-12-02T08:22:25.598Z,160
2016-12-02T08:23:25.565Z,175
2016-12-02T08:24:25.536Z,560
2016-12-02T08:25:25.482Z,610
2016-12-02T08:26:25.738Z,620
2016-12-02T08:27:25.397Z,620
2016-12-02T08:28:25.355Z,625
2016-12-02T08:29:25.314Z,625
2016-12-02T08:30:25.570Z,620
2016-12-02T08:31:25.232Z,620
2016-12-02T08:32:25.195Z,625
2016-12-02T08:33:25.459Z,625
2016-12-02T08:34:25.428Z,635
2016-12-02T08:35:24.774Z,640
2016-12-02T08:36:25.338Z,645
2016-12-02T08:37:24.693Z,650
2016-12-02T08:38:24.958Z,655
2016-12-02T08:39:24.926Z,650
2016-12-02T08:40:24.604Z,650
2016-12-02T08:41:25.161Z,660
2016-12-02T08:42:24.521Z,665
2016-12-02T08:43:25.087Z,680
2016-12-02T08:44:24.777Z,680
2016-12-02T08:45:24.709Z,685
2016-12-02T08:46:24.983Z,690
2016-12-02T08:47:24.359Z,705
2016-12-02T08:48:24.629Z,715
2016-12-02T08:49:24.877Z,730
2016-12-02T08:50:24.539Z,745
2016-12-02T08:51:24.500Z,765
2016-12-02T08:52:24.167Z,775
2016-12-02T08:53:24.734Z,775
2016-12-02T08:54:24.396Z,575
2016-12-02T08:55:24.668Z,600
2016-12-02T08:56:24.341Z,575
2016-12-02T08:57:24.311Z,455
2016-12-02T08:58:24.275Z,760
2016-12-02T08:59:24.246Z,595
2016-12-02T09:00:23.906Z,385
2016-12-02T09:01:23.872Z,290
2016-12-02T09:02:24.445Z,310
2016-12-02T09:03:24.132Z,330
2016-12-02T09:04:23.779Z,295
2016-12-02T09:05:23.749Z,415
2016-12-02T09:06:24.319Z,285
2016-12-02T09:07:24.004Z,295
2016-12-02T09:08:23.954Z,385
2016-12-02T09:09:23.619Z,305
2016-12-02T09:10:24.191Z,425
2016-12-02T09:11:23.850Z,445
2016-12-02T09:12:24.118Z,735
2016-12-02T09:13:23.483Z,810
2016-12-02T09:14:23.448Z,845
2016-12-02T09:15:23.708Z,865
2016-12-02T09:16:23.986Z,850
2016-12-02T09:17:23.056Z,830
2016-12-02T09:18:23.610Z,825
2016-12-02T09:19:23.888Z,835
2016-12-02T09:20:23.243Z,855
2016-12-02T09:21:23.509Z,885
2016-12-02T09:22:23.480Z,900
2016-12-02T09:23:23.150Z,920
2016-12-02T09:24:23.720Z,940
2016-12-02T09:25:23.420Z,790
2016-12-02T09:26:23.352Z,520
2016-12-02T09:27:23.020Z,445
2016-12-02T09:28:22.386Z,530
2016-12-02T09:29:23.269Z,635
2016-12-02T09:30:23.228Z,755
2016-12-02T09:31:22.899Z,1010
2016-12-02T09:32:23.170Z,795
2016-12-02T09:33:23.446Z,775
2016-12-02T09:34:22.798Z,590
2016-12-02T09:35:23.375Z,890
2016-12-02T09:36:23.343Z,925
2016-12-02T09:37:23.007Z,600
2016-12-02T09:38:23.282Z,950
2016-12-02T09:39:22.949Z,895
2016-12-02T09:40:22.919Z,940
2016-12-02T09:41:22.585Z,975
2016-12-02T09:42:23.169Z,910
2016-12-02T09:43:22.825Z,925
2016-12-02T09:44:22.801Z,965
2016-12-02T09:45:22.485Z,960
2016-12-02T09:46:23.044Z,950
2016-12-02T09:47:23.011Z,950
2016-12-02T09:48:22.686Z,925
2016-12-02T09:49:22.339Z,905
2016-12-02T09:50:22.614Z,470
2016-12-02T09:51:22.283Z,350
2016-12-02T09:52:22.567Z,865
2016-12-02T09:53:22.834Z,830
2016-12-02T09:54:22.499Z,835
2016-12-02T09:55:22.476Z,830
2016-12-02T09:56:22.458Z,830
2016-12-02T09:57:22.413Z,845
2016-12-02T09:58:22.384Z,845
2016-12-02T09:59:22.359Z,855
2016-12-02T10:00:22.023Z,875
2016-12-02T10:01:21.992Z,885
2016-12-02T10:02:22.272Z,885
2016-12-02T10:03:22.545Z,905
2016-12-02T10:04:21.909Z,935
2016-12-02T10:05:21.280Z,945
2016-12-02T10:06:22.458Z,970
2016-12-02T10:07:22.125Z,1025
2016-12-02T10:08:21.792Z,1125
2016-12-02T10:09:21.460Z,1250
2016-12-02T10:10:21.731Z,1310
2016-12-02T10:11:22.010Z,1335
2016-12-02T10:12:22.298Z,1435
2016-12-02T10:13:21.951Z,1515
2016-12-02T10:14:21.919Z,1540
2016-12-02T10:15:21.589Z,1545
2016-12-02T10:16:22.177Z,1550
2016-12-02T10:17:22.162Z,1520
2016-12-02T10:18:21.206Z,1500
2016-12-02T10:19:21.781Z,1520
2016-12-02T10:20:21.758Z,1500
2016-12-02T10:21:22.019Z,1465
2016-12-02T10:22:21.696Z,1435
2016-12-02T10:23:21.358Z,1400
2016-12-02T10:24:21.339Z,1390
2016-12-02T10:25:21.910Z,1260
2016-12-02T10:26:21.273Z,900
2016-12-02T10:27:21.547Z,715
2016-12-02T10:28:21.817Z,685
2016-12-02T10:29:21.181Z,670
2016-12-02T10:30:21.156Z,665
2016-12-02T10:31:21.124Z,665
2016-12-02T10:32:21.406Z,660
2016-12-02T10:33:21.074Z,640
2016-12-02T10:34:21.349Z,625
2016-12-02T10:35:21.325Z,645
2016-12-02T10:36:21.288Z,645
2016-12-02T10:37:21.250Z,650
2016-12-02T10:38:21.235Z,645
2016-12-02T10:39:21.502Z,640
2016-12-02T10:40:20.564Z,645
2016-12-02T10:41:20.548Z,645
2016-12-02T10:42:21.109Z,640
2016-12-02T10:43:21.387Z,650
2016-12-02T10:44:21.051Z,650
2016-12-02T10:45:21.021Z,650
2016-12-02T10:46:21.007Z,645
2016-12-02T10:47:21.292Z,650
2016-12-02T10:48:20.960Z,650
2016-12-02T10:49:20.606Z,655
2016-12-02T10:50:21.183Z,695
2016-12-02T10:51:20.849Z,1000
2016-12-02T10:52:20.817Z,1275
2016-12-02T10:53:20.493Z,1345
2016-12-02T10:54:21.070Z,1405
2016-12-02T10:55:21.034Z,1355
2016-12-02T10:56:20.402Z,1365
2016-12-02T10:57:20.679Z,1400
2016-12-02T10:58:20.945Z,1435
2016-12-02T10:59:20.914Z,1460
2016-12-02T11:00:20.886Z,1425
2016-12-02T11:01:20.557Z,1360
2016-12-02T11:02:20.232Z,1345
2016-12-02T11:03:20.646Z,1390
2016-12-02T11:04:20.163Z,1315
2016-12-02T11:05:20.440Z,925
2016-12-02T11:06:20.727Z,555
2016-12-02T11:07:20.078Z,505
2016-12-02T11:08:20.649Z,505
2016-12-02T11:09:20.328Z,500
2016-12-02T11:10:20.295Z,505
2016-12-02T11:11:20.267Z,510
2016-12-02T11:12:20.293Z,515
2016-12-02T11:13:19.950Z,510
2016-12-02T11:14:20.173Z,495
2016-12-02T11:15:20.141Z,480
2016-12-02T11:16:20.440Z,460
2016-12-02T11:17:20.080Z,445
2016-12-02T11:18:20.352Z,415
2016-12-02T11:19:20.318Z,405
2016-12-02T11:20:20.002Z,435
2016-12-02T11:21:19.957Z,560
2016-12-02T11:22:19.949Z,590
2016-12-02T11:23:19.891Z,640
2016-12-02T11:24:19.864Z,1065
2016-12-02T11:25:19.832Z,1290
2016-12-02T11:26:19.800Z,1220
2016-12-02T11:27:19.895Z,730
2016-12-02T11:28:19.737Z,495
2016-12-02T11:29:19.400Z,485
2016-12-02T11:30:19.906Z,320
2016-12-02T11:31:19.942Z,295
2016-12-02T11:32:19.606Z,285
2016-12-02T11:33:19.572Z,275
2016-12-02T11:34:19.553Z,260
2016-12-02T11:35:18.923Z,250
2016-12-02T11:36:19.786Z,240
2016-12-02T11:37:19.165Z,235
2016-12-02T11:38:18.810Z,230
2016-12-02T11:39:19.383Z,225
2016-12-02T11:40:19.641Z,225
2016-12-02T11:41:19.316Z,220
2016-12-02T11:42:19.281Z,220
2016-12-02T11:43:19.246Z,220
2016-12-02T11:44:19.514Z,215
2016-12-02T11:45:19.484Z,210
2016-12-02T11:46:19.442Z,210
2016-12-02T11:47:19.413Z,205
2016-12-02T11:48:18.777Z,205
2016-12-02T11:49:18.737Z,200
2016-12-02T11:50:18.708Z,205
2016-12-02T11:51:18.979Z,195
2016-12-02T11:52:18.628Z,195
2016-12-02T11:53:18.899Z,195
2016-12-02T11:54:18.880Z,190
2016-12-02T11:55:19.129Z,190
2016-12-02T11:56:18.185Z,190
2016-12-02T11:57:19.054Z,185
2016-12-02T11:58:18.728Z,185
2016-12-02T11:59:18.992Z,180
2016-12-02T12:00:18.683Z,180
2016-12-02T12:01:18.614Z,175
2016-12-02T12:02:18.579Z,170
2016-12-02T12:03:18.232Z,165
2016-12-02T12:04:18.511Z,165
2016-12-02T12:05:18.470Z,160
2016-12-02T12:06:18.426Z,160
2016-12-02T12:07:18.087Z,160
2016-12-02T12:08:18.354Z,160
2016-12-02T12:09:18.319Z,160
2016-12-02T12:10:17.980Z,160
2016-12-02T12:11:18.549Z,160
2016-12-02T12:12:18.510Z,160
2016-12-02T12:13:17.877Z,160
2016-12-02T12:14:18.134Z,160
2016-12-02T12:15:17.492Z,160
2016-12-02T12:16:17.754Z,160
2016-12-02T12:17:18.341Z,160
2016-12-02T12:18:17.680Z,155
2016-12-02T12:19:17.943Z,155
2016-12-02T12:20:18.211Z,155
2016-12-02T12:21:17.870Z,155
2016-12-02T12:22:17.833Z,155
2016-12-02T12:23:17.797Z,155
2016-12-02T12:24:17.761Z,155
2016-12-02T12:25:17.728Z,150
2016-12-02T12:26:17.985Z,145
2016-12-02T12:27:17.650Z,135
2016-12-02T12:28:17.907Z,130
2016-12-02T12:29:17.868Z,135
2016-12-02T12:30:17.840Z,140
2016-12-02T12:31:17.190Z,135
2016-12-02T12:32:17.757Z,140
2016-12-02T12:33:17.416Z,135
2016-12-02T12:34:17.379Z,140
2016-12-02T12:35:17.039Z,140
2016-12-02T12:36:17.612Z,140
2016-12-02T12:37:17.565Z,140
2016-12-02T12:38:16.933Z,135
2016-12-02T12:39:16.892Z,135
2016-12-02T12:40:17.455Z,135
2016-12-02T12:41:17.113Z,135
2016-12-02T12:42:17.412Z,130
2016-12-02T12:43:17.039Z,130
2016-12-02T12:44:16.696Z,130
2016-12-02T12:45:16.657Z,130
2016-12-02T12:46:17.230Z,130
2016-12-02T12:47:17.186Z,125
2016-12-02T12:48:16.852Z,125
2016-12-02T12:49:16.807Z,130
2016-12-02T12:50:17.067Z,125
2016-12-02T12:51:16.427Z,125
2016-12-02T12:52:16.688Z,125
2016-12-02T12:53:16.648Z,125
2016-12-02T12:54:16.311Z,125
2016-12-02T12:55:16.875Z,125
2016-12-02T12:56:16.834Z,125
2016-12-02T12:57:16.799Z,125
2016-12-02T12:58:16.760Z,125
2016-12-02T12:59:16.727Z,120
2016-12-02T13:00:16.680Z,120
2016-12-02T13:01:16.646Z,120
2016-12-02T13:02:16.601Z,120
2016-12-02T13:03:15.957Z,120
2016-12-02T13:04:15.920Z,120
2016-12-02T13:05:15.888Z,120
2016-12-02T13:06:16.144Z,120
2016-12-02T13:07:16.408Z,120
2016-12-02T13:08:16.068Z,120
2016-12-02T13:09:16.055Z,120
2016-12-02T13:10:15.682Z,120
2016-12-02T13:11:15.650Z,120
2016-12-02T13:12:15.615Z,120
2016-12-02T13:13:15.892Z,120
2016-12-02T13:14:16.140Z,115
2016-12-02T13:15:16.108Z,115
2016-12-02T13:16:15.456Z,115
2016-12-02T13:17:16.021Z,115
2016-12-02T13:18:15.402Z,115
2016-12-02T13:19:15.646Z,115
2016-12-02T13:20:15.599Z,115
2016-12-02T13:21:15.255Z,115
2016-12-02T13:22:15.827Z,115
2016-12-02T13:23:15.492Z,110
2016-12-02T13:24:15.452Z,110
2016-12-02T13:25:15.707Z,110
2016-12-02T13:26:15.372Z,110
2016-12-02T13:27:15.025Z,110
2016-12-02T13:28:15.284Z,110
2016-12-02T13:29:15.550Z,110
2016-12-02T13:30:15.510Z,110
2016-12-02T13:31:15.174Z,115
2016-12-02T13:32:14.820Z,115
2016-12-02T13:33:15.090Z,115
2016-12-02T13:34:15.391Z,115
2016-12-02T13:35:15.317Z,115
2016-12-02T13:36:14.668Z,115
2016-12-02T13:37:15.233Z,115
2016-12-02T13:38:15.203Z,120
2016-12-02T13:39:15.154Z,125
2016-12-02T13:40:14.819Z,130
2016-12-02T13:41:15.087Z,130
2016-12-02T13:42:14.433Z,130
2016-12-02T13:43:14.694Z,125
2016-12-02T13:44:14.963Z,125
2016-12-02T13:45:14.312Z,120
2016-12-02T13:46:14.883Z,115
2016-12-02T13:47:14.559Z,110
2016-12-02T13:48:14.799Z,110
2016-12-02T13:49:14.462Z,110
2016-12-02T13:50:14.433Z,110
2016-12-02T13:51:14.382Z,105
2016-12-02T13:52:14.641Z,105
2016-12-02T13:53:14.604Z,105
2016-12-02T13:54:14.556Z,100
2016-12-02T13:55:14.219Z,100
2016-12-02T13:56:14.483Z,95
2016-12-02T13:57:14.139Z,100
2016-12-02T13:58:13.792Z,110
2016-12-02T13:59:13.756Z,100
2016-12-02T14:00:14.322Z,95
2016-12-02T14:01:13.985Z,95
2016-12-02T14:02:14.254Z,90
2016-12-02T14:03:13.916Z,95
2016-12-02T14:04:13.864Z,90
2016-12-02T14:05:14.136Z,85
2016-12-02T14:06:14.104Z,80
2016-12-02T14:07:14.045Z,80
2016-12-02T14:08:14.010Z,75
2016-12-02T14:09:13.061Z,75
2016-12-02T14:10:13.929Z,75
2016-12-02T14:11:13.883Z,75
2016-12-02T14:12:13.844Z,80
2016-12-02T14:13:13.507Z,75
2016-12-02T14:14:13.771Z,75